createdAt,value
2022-09-15T00:01:01.892Z,-11.27
2022-09-15T00:02:38.235Z,1.24
2022-09-15T00:04:14.597Z,-23.06
2022-09-15T00:05:50.897Z,-38.27
2022-09-15T00:07:27.261Z,-25.77
2022-09-15T00:09:03.571Z,5.34
2022-09-15T00:10:39.931Z,-13.16
2022-09-15T00:12:15.228Z,-29.27
2022-09-15T00:13:51.566Z,-11.16
2022-09-15T00:15:27.897Z,-9.86
2022-09-15T00:17:04.228Z,-16.56
2022-09-15T00:18:40.598Z,-8.46
2022-09-15T00:20:16.892Z,-12.86
2022-09-15T00:21:53.229Z,-1.77
2022-09-15T00:23:29.553Z,-27.77
2022-09-15T00:25:05.888Z,-26.16
2022-09-15T00:26:42.213Z,-32.96
2022-09-15T00:28:18.546Z,-12.46
2022-09-15T00:29:54.868Z,-6.77
2022-09-15T00:31:31.202Z,-14.16
2022-09-15T00:33:07.537Z,-10.16
2022-09-15T00:34:43.861Z,-2.56
2022-09-15T00:36:20.204Z,-13.56
2022-09-15T00:37:56.522Z,-27.06
2022-09-15T00:39:32.860Z,-17.46
2022-09-15T00:41:09.195Z,-21.46
2022-09-15T00:42:45.527Z,-53.16
2022-09-15T00:44:21.848Z,1.64
2022-09-15T00:45:58.190Z,-13.96
2022-09-15T00:47:34.510Z,-11.66
2022-09-15T00:49:10.840Z,-12.46
2022-09-15T00:50:47.178Z,-21.06
2022-09-15T00:52:23.586Z,-24.06
2022-09-15T00:53:58.846Z,-41.77
2022-09-15T00:55:35.191Z,-43.86
2022-09-15T00:57:11.507Z,-17.66
2022-09-15T00:58:47.851Z,-30.56
2022-09-15T01:00:24.202Z,-40.56
2022-09-15T01:02:00.507Z,-21.46
2022-09-15T01:03:36.851Z,-30.46
2022-09-15T01:05:13.167Z,-38.86
2022-09-15T01:06:49.504Z,-39.66
2022-09-15T01:08:25.837Z,-42.06
2022-09-15T01:10:02.164Z,-40.06
2022-09-15T01:11:38.501Z,-39.06
2022-09-15T01:13:14.827Z,-41.36
2022-09-15T01:14:51.156Z,-34.77
2022-09-15T01:16:27.483Z,-33.96
2022-09-15T01:18:02.835Z,-28.27
2022-09-15T01:19:39.169Z,-55.16
2022-09-15T01:21:15.494Z,-30.27
2022-09-15T01:22:51.823Z,-48.36
2022-09-15T01:24:28.175Z,-32.77
2022-09-15T01:26:04.485Z,-30.27
2022-09-15T01:27:40.812Z,-35.77
2022-09-15T01:29:17.143Z,-53.46
2022-09-15T01:30:53.481Z,-50.36
2022-09-15T01:32:29.815Z,-34.96
2022-09-15T01:34:06.138Z,-33.56
2022-09-15T01:35:42.474Z,-36.66
2022-09-15T01:37:18.793Z,-40.36
2022-09-15T01:38:55.136Z,-26.86
2022-09-15T01:40:31.483Z,-63.77
2022-09-15T01:42:07.791Z,-30.56
2022-09-15T01:43:44.120Z,-34.96
2022-09-15T01:45:20.449Z,-56.86
2022-09-15T01:46:56.805Z,-21.96
2022-09-15T01:48:33.129Z,-52.56
2022-09-15T01:50:09.451Z,-42.86
2022-09-15T01:51:45.784Z,-28.86
2022-09-15T01:53:22.109Z,-47.46
2022-09-15T01:54:58.449Z,-32.56
2022-09-15T01:56:34.787Z,-33.96
2022-09-15T01:58:11.117Z,-37.46
2022-09-15T01:59:47.430Z,-46.06
2022-09-15T02:01:23.759Z,-32.77
2022-09-15T02:03:00.097Z,-46.46
2022-09-15T02:04:35.444Z,-27.16
2022-09-15T02:06:11.777Z,-26.06
2022-09-15T02:07:48.138Z,-32.86
2022-09-15T02:09:24.445Z,-33.36
2022-09-15T02:11:00.794Z,-12.46
2022-09-15T02:12:37.112Z,-39.46
2022-09-15T02:14:13.436Z,-19.27
2022-09-15T02:15:49.764Z,-22.16
2022-09-15T02:17:26.105Z,-17.36
2022-09-15T02:19:02.434Z,-21.36
2022-09-15T02:20:38.765Z,-37.77
2022-09-15T02:22:15.101Z,-7.86
2022-09-15T02:23:51.423Z,-16.27
2022-09-15T02:25:27.757Z,-29.96
2022-09-15T02:27:04.085Z,-5.77
2022-09-15T02:28:40.413Z,-24.27
2022-09-15T02:30:16.759Z,-33.66
2022-09-15T02:31:53.081Z,-20.86
2022-09-15T02:33:29.404Z,-30.06
2022-09-15T02:35:05.743Z,-25.27
2022-09-15T02:36:42.083Z,-26.96
2022-09-15T02:38:18.475Z,-28.66
2022-09-15T02:39:53.767Z,-31.06
2022-09-15T02:41:30.082Z,-44.06
2022-09-15T02:43:06.414Z,-31.96
2022-09-15T02:44:42.749Z,-44.16
2022-09-15T02:46:19.073Z,-37.66
2022-09-15T02:47:55.409Z,-44.66
2022-09-15T02:49:31.732Z,-31.66
2022-09-15T02:51:08.068Z,-43.46
2022-09-15T02:52:44.395Z,-21.86
2022-09-15T02:54:20.721Z,-24.86
2022-09-15T02:55:57.062Z,-35.77
2022-09-15T02:57:33.398Z,-36.77
2022-09-15T02:59:09.738Z,-28.16
2022-09-15T03:00:46.059Z,-33.16
2022-09-15T03:02:22.390Z,-14.66
2022-09-15T03:03:58.714Z,-37.56
2022-09-15T03:05:35.122Z,-17.86
2022-09-15T03:07:11.389Z,-41.36
2022-09-15T03:08:46.724Z,-52.96
2022-09-15T03:10:23.105Z,-37.06
2022-09-15T03:11:59.395Z,-57.36
2022-09-15T03:13:35.715Z,-46.86
2022-09-15T03:15:12.083Z,-37.36
2022-09-15T03:16:48.376Z,-45.66
2022-09-15T03:18:24.710Z,-41.56
2022-09-15T03:20:01.034Z,-44.77
2022-09-15T03:21:37.359Z,-32.66
2022-09-15T03:23:13.698Z,-38.16
2022-09-15T03:24:50.037Z,-43.86
2022-09-15T03:26:26.357Z,-35.06
2022-09-15T03:28:02.692Z,-29.96
2022-09-15T03:29:39.017Z,-53.77
2022-09-15T03:31:15.357Z,-48.77
2022-09-15T03:32:51.704Z,-49.66
2022-09-15T03:34:28.055Z,-32.27
2022-09-15T03:36:04.434Z,-35.66
2022-09-15T03:37:40.691Z,-56.86
2022-09-15T03:39:17.001Z,-48.86
2022-09-15T03:40:52.354Z,-50.96
2022-09-15T03:42:28.679Z,-33.77
2022-09-15T03:44:05.021Z,-31.36
2022-09-15T03:45:41.344Z,-33.96
2022-09-15T03:47:17.681Z,-30.56
2022-09-15T03:48:54.019Z,-42.56
2022-09-15T03:50:30.368Z,-22.66
2022-09-15T03:52:06.671Z,-60.86
2022-09-15T03:53:43.052Z,-31.66
2022-09-15T03:55:19.412Z,-31.77
2022-09-15T03:56:55.661Z,-37.16
2022-09-15T03:58:31.995Z,-28.46
2022-09-15T04:00:08.342Z,-43.27
2022-09-15T04:01:43.663Z,-31.16
2022-09-15T04:03:20.001Z,-40.46
2022-09-15T04:04:56.367Z,-47.77
2022-09-15T04:06:32.691Z,-36.27
2022-09-15T04:08:08.994Z,-31.06
2022-09-15T04:09:45.323Z,-18.06
2022-09-15T04:11:21.662Z,-20.86
2022-09-15T04:12:57.984Z,-32.56
2022-09-15T04:14:34.315Z,-34.66
2022-09-15T04:16:10.650Z,-39.06
2022-09-15T04:17:46.990Z,-39.86
2022-09-15T04:19:23.317Z,-50.27
2022-09-15T04:20:59.657Z,-47.46
2022-09-15T04:22:36.029Z,-50.16
2022-09-15T04:24:12.301Z,-41.16
2022-09-15T04:25:48.638Z,-66.46
2022-09-15T04:27:24.967Z,-50.56
2022-09-15T04:29:01.308Z,-28.96
2022-09-15T04:30:37.676Z,-36.77
2022-09-15T04:32:13.951Z,-42.06
2022-09-15T04:33:50.328Z,-35.96
2022-09-15T04:35:26.621Z,-47.86
2022-09-15T04:37:02.961Z,-42.46
2022-09-15T04:38:39.309Z,-57.06
2022-09-15T04:40:15.619Z,-23.06
2022-09-15T04:41:51.988Z,-16.36
2022-09-15T04:43:28.276Z,-48.16
2022-09-15T04:45:03.628Z,-37.27
2022-09-15T04:46:39.951Z,-53.96
2022-09-15T04:48:16.278Z,-52.36
2022-09-15T04:49:52.624Z,-32.36
2022-09-15T04:51:28.947Z,-29.27
2022-09-15T04:53:05.281Z,-39.96
2022-09-15T04:54:41.597Z,-47.66
2022-09-15T04:56:17.951Z,-31.16
2022-09-15T04:57:54.266Z,-41.46
2022-09-15T04:59:30.605Z,-44.96
2022-09-15T05:01:06.931Z,-61.46
2022-09-15T05:02:43.262Z,-43.96
2022-09-15T05:04:19.597Z,-35.66
2022-09-15T05:05:55.934Z,-26.77
2022-09-15T05:07:32.263Z,-62.16
2022-09-15T05:09:08.601Z,-47.36
2022-09-15T05:10:44.915Z,-44.06
2022-09-15T05:12:21.254Z,-24.66
2022-09-15T05:13:57.578Z,-29.27
2022-09-15T05:15:33.911Z,-40.46
2022-09-15T05:17:09.275Z,-22.96
2022-09-15T05:18:45.584Z,-22.56
2022-09-15T05:20:21.916Z,-27.86
2022-09-15T05:21:58.285Z,-28.06
2022-09-15T05:23:34.578Z,-44.36
2022-09-15T05:25:10.932Z,-28.86
2022-09-15T05:26:47.241Z,-27.27
2022-09-15T05:28:23.575Z,-35.66
2022-09-15T05:29:59.904Z,-37.56
2022-09-15T05:31:36.263Z,-36.66
2022-09-15T05:33:12.711Z,-31.96
2022-09-15T05:34:48.896Z,-37.27
2022-09-15T05:36:25.374Z,-40.96
2022-09-15T05:38:01.662Z,-49.36
2022-09-15T05:39:38.021Z,-39.56
2022-09-15T05:41:13.328Z,-28.77
2022-09-15T05:42:49.566Z,-50.36
2022-09-15T05:44:25.900Z,-58.06
2022-09-15T05:46:02.255Z,-39.77
2022-09-15T05:47:38.598Z,-63.96
2022-09-15T05:49:14.920Z,-51.06
2022-09-15T05:50:51.346Z,-47.46
2022-09-15T05:52:27.558Z,-33.06
2022-09-15T05:54:03.928Z,-36.56
2022-09-15T05:55:40.216Z,-44.86
2022-09-15T05:57:16.559Z,-27.46
2022-09-15T05:58:52.936Z,-38.56
2022-09-15T06:00:29.208Z,-42.77
2022-09-15T06:02:04.565Z,-50.27
2022-09-15T06:03:40.890Z,-53.77
2022-09-15T06:05:17.224Z,-35.27
2022-09-15T06:06:53.557Z,-40.16
2022-09-15T06:08:29.910Z,-50.96
2022-09-15T06:10:06.264Z,-34.06
2022-09-15T06:11:42.537Z,-56.16
2022-09-15T06:13:18.879Z,-58.66
2022-09-15T06:14:55.207Z,-66.86
2022-09-15T06:16:31.550Z,-53.46
2022-09-15T06:18:07.871Z,-45.36
2022-09-15T06:19:44.199Z,-45.16
2022-09-15T06:21:20.532Z,-31.96
2022-09-15T06:22:56.862Z,-46.77
2022-09-15T06:24:33.216Z,-38.77
2022-09-15T06:26:09.530Z,-49.86
2022-09-15T06:27:45.854Z,-55.66
2022-09-15T06:29:22.191Z,-67.06
2022-09-15T06:30:57.567Z,-42.16
2022-09-15T06:32:33.863Z,-36.27
2022-09-15T06:34:10.229Z,-41.77
2022-09-15T06:35:46.527Z,-75.16
2022-09-15T06:37:22.851Z,-37.86
2022-09-15T06:38:59.211Z,-65.36
2022-09-15T06:40:35.524Z,-44.56
2022-09-15T06:42:11.856Z,-49.46
2022-09-15T06:43:48.175Z,-45.46
2022-09-15T06:45:24.542Z,-44.66
2022-09-15T06:47:00.844Z,-65.66
2022-09-15T06:48:37.178Z,-65.36
2022-09-15T06:50:13.511Z,-54.36
2022-09-15T06:51:49.870Z,-50.77
2022-09-15T06:53:26.168Z,-64.36
2022-09-15T06:55:02.498Z,-60.46
2022-09-15T06:56:38.838Z,-53.46
2022-09-15T06:58:15.170Z,-42.16
2022-09-15T06:59:51.615Z,-46.77
2022-09-15T07:01:27.854Z,-73.56
2022-09-15T07:03:04.184Z,-71.56
2022-09-15T07:04:40.483Z,-60.66
2022-09-15T07:06:16.831Z,-49.06
2022-09-15T07:07:53.146Z,-64.36
2022-09-15T07:09:29.477Z,-48.66
2022-09-15T07:11:05.843Z,-62.36
2022-09-15T07:12:42.140Z,-46.36
2022-09-15T07:14:18.466Z,-46.96
2022-09-15T07:15:54.817Z,-54.96
2022-09-15T07:17:31.130Z,-54.16
2022-09-15T07:19:07.470Z,-84.56
2022-09-15T07:20:43.786Z,-73.27
2022-09-15T07:22:19.147Z,-63.06
2022-09-15T07:23:55.527Z,-80.36
2022-09-15T07:25:31.806Z,-66.46
2022-09-15T07:27:08.147Z,-57.27
2022-09-15T07:28:44.468Z,-39.36
2022-09-15T07:30:20.797Z,-56.66
2022-09-15T07:31:57.129Z,-85.36
2022-09-15T07:33:33.506Z,-57.16
2022-09-15T07:35:09.787Z,-64.96
2022-09-15T07:36:46.115Z,-57.06
2022-09-15T07:38:21.475Z,-73.16
2022-09-15T07:39:57.801Z,-78.06
2022-09-15T07:41:34.140Z,-78.36
2022-09-15T07:43:10.486Z,-72.86
2022-09-15T07:44:46.790Z,-67.96
2022-09-15T07:46:23.128Z,-60.86
2022-09-15T07:47:59.460Z,-50.66
2022-09-15T07:49:35.791Z,-52.77
2022-09-15T07:51:12.114Z,-57.77
2022-09-15T07:52:48.446Z,-52.56
2022-09-15T07:54:24.776Z,-50.66
2022-09-15T07:56:01.116Z,-64.77
2022-09-15T07:57:37.443Z,-56.46
2022-09-15T07:59:13.770Z,-56.36
2022-09-15T08:00:49.122Z,-67.16
2022-09-15T08:02:25.452Z,-67.46
2022-09-15T08:04:01.777Z,-55.96
2022-09-15T08:05:38.107Z,-53.86
2022-09-15T08:07:14.436Z,-68.86
2022-09-15T08:08:50.787Z,-45.66
2022-09-15T08:10:27.101Z,-40.86
2022-09-15T08:12:03.432Z,-57.56
2022-09-15T08:13:39.761Z,-27.66
2022-09-15T08:15:16.099Z,-41.16
2022-09-15T08:16:52.438Z,-63.77
2022-09-15T08:18:28.768Z,-45.36
2022-09-15T08:20:05.114Z,-46.66
2022-09-15T08:21:40.443Z,-52.96
2022-09-15T08:23:16.763Z,-44.46
2022-09-15T08:24:53.119Z,-40.46
2022-09-15T08:26:29.450Z,-16.96
2022-09-15T08:28:05.761Z,-61.46
2022-09-15T08:29:42.255Z,-37.77
2022-09-15T08:31:18.413Z,-40.36
2022-09-15T08:32:54.750Z,-37.96
2022-09-15T08:34:31.085Z,-28.77
2022-09-15T08:36:07.428Z,-42.16
2022-09-15T08:37:43.772Z,-58.86
2022-09-15T08:39:20.076Z,-71.16
2022-09-15T08:40:56.412Z,-55.16
2022-09-15T08:42:31.805Z,-81.77
2022-09-15T08:44:08.126Z,-59.27
2022-09-15T08:45:44.491Z,-84.66
2022-09-15T08:47:20.798Z,-66.56
2022-09-15T08:48:57.164Z,-74.56
2022-09-15T08:50:33.431Z,-57.56
2022-09-15T08:52:09.737Z,-75.77
2022-09-15T08:53:46.080Z,-59.86
2022-09-15T08:55:22.432Z,-58.96
2022-09-15T08:56:58.764Z,-95.56
2022-09-15T08:58:35.131Z,-84.27
2022-09-15T09:00:11.471Z,-57.56
2022-09-15T09:01:47.728Z,-80.16
2022-09-15T09:03:23.108Z,-53.77
2022-09-15T09:04:59.404Z,-56.56
2022-09-15T09:06:35.754Z,-70.46
2022-09-15T09:08:12.061Z,-55.77
2022-09-15T09:09:48.406Z,-79.46
2022-09-15T09:11:24.827Z,-39.96
2022-09-15T09:13:01.080Z,-87.96
2022-09-15T09:14:37.386Z,-71.36
2022-09-15T09:16:13.716Z,-84.77
2022-09-15T09:17:50.043Z,-47.36
2022-09-15T09:19:26.391Z,-67.16
2022-09-15T09:21:02.734Z,-109.36
2022-09-15T09:22:39.080Z,-119.66
2022-09-15T09:24:14.513Z,-86.46
2022-09-15T09:25:50.744Z,-77.16
2022-09-15T09:27:27.065Z,-69.27
2022-09-15T09:29:03.415Z,-111.56
2022-09-15T09:30:39.792Z,-149.56
2022-09-15T09:32:16.042Z,-88.27
2022-09-15T09:33:52.466Z,-137.06
2022-09-15T09:35:28.700Z,-70.77
2022-09-15T09:37:05.030Z,-99.36
2022-09-15T09:38:41.385Z,-94.27
2022-09-15T09:40:17.699Z,-111.56
2022-09-15T09:41:54.028Z,-78.36
2022-09-15T09:43:30.493Z,-81.96
2022-09-15T09:45:05.703Z,-122.27
2022-09-15T09:46:42.146Z,-111.86
2022-09-15T09:48:18.483Z,-112.86
2022-09-15T09:49:54.760Z,-100.96
2022-09-15T09:51:31.147Z,-136.66
2022-09-15T09:53:07.398Z,-78.16
2022-09-15T09:54:43.757Z,-86.06
2022-09-15T09:56:20.103Z,-97.27
2022-09-15T09:57:56.439Z,-105.66
2022-09-15T09:59:32.743Z,-63.27
2022-09-15T10:01:09.103Z,-134.77
2022-09-15T10:02:45.460Z,-144.26
2022-09-15T10:04:21.681Z,-82.66
2022-09-15T10:05:58.024Z,-134.27
2022-09-15T10:07:34.436Z,-80.46
2022-09-15T10:09:09.782Z,-91.16
2022-09-15T10:10:46.008Z,-92.46
2022-09-15T10:12:22.523Z,-92.56
2022-09-15T10:13:58.805Z,-141.06
2022-09-15T10:15:35.043Z,-94.66
2022-09-15T10:17:11.429Z,-98.77
2022-09-15T10:18:47.663Z,-77.36
2022-09-15T10:20:24.043Z,-83.06
2022-09-15T10:22:00.328Z,-79.96
2022-09-15T10:23:36.690Z,-87.27
2022-09-15T10:25:13.059Z,-119.56
2022-09-15T10:28:25.711Z,-86.96
2022-09-15T10:30:01.990Z,-117.66
2022-09-15T10:31:38.318Z,-134.36
2022-09-15T10:33:13.659Z,-133.16
2022-09-15T10:34:49.985Z,-112.56
2022-09-15T10:36:26.319Z,-128.36
2022-09-15T10:38:02.700Z,-140.06
2022-09-15T10:39:39.021Z,-138.16
2022-09-15T10:41:15.342Z,-130.16
2022-09-15T10:42:51.667Z,-124.77
2022-09-15T10:44:27.973Z,-119.86
2022-09-15T10:46:04.330Z,-118.96
2022-09-15T10:47:40.630Z,-174.06
2022-09-15T10:49:16.969Z,-127.86
2022-09-15T10:50:53.366Z,-130.56
2022-09-15T10:52:29.637Z,-122.27
2022-09-15T10:54:04.985Z,-117.66
2022-09-15T10:55:41.386Z,-139.96
2022-09-15T10:57:17.742Z,-94.16
2022-09-15T10:58:54.049Z,-103.77
2022-09-15T11:00:30.359Z,-119.66
2022-09-15T11:02:06.726Z,-105.36
2022-09-15T11:03:42.959Z,-142.27
2022-09-15T11:05:19.280Z,-116.56
2022-09-15T11:06:55.622Z,-111.96
2022-09-15T11:08:32.041Z,-90.27
2022-09-15T11:10:08.373Z,-90.77
2022-09-15T11:11:44.673Z,-93.27
2022-09-15T11:13:20.942Z,-108.27
2022-09-15T11:14:57.349Z,-93.36
2022-09-15T11:16:32.652Z,-84.86
2022-09-15T11:18:09.051Z,-99.36
2022-09-15T11:19:45.357Z,-100.06
2022-09-15T11:21:21.763Z,-70.66
2022-09-15T11:22:57.941Z,-76.56
2022-09-15T11:24:34.398Z,-57.66
2022-09-15T11:26:10.624Z,-41.77
2022-09-15T11:27:46.968Z,-43.66
2022-09-15T11:29:23.376Z,-57.86
2022-09-15T11:30:59.653Z,-68.86
2022-09-15T11:32:35.967Z,-61.86
2022-09-15T11:34:12.318Z,-93.66
2022-09-15T11:35:48.593Z,-83.27
2022-09-15T11:37:24.969Z,-73.36
2022-09-15T11:39:00.280Z,-96.77
2022-09-15T11:40:36.601Z,-62.77
2022-09-15T11:42:12.929Z,-86.77
2022-09-15T11:43:49.260Z,-75.16
2022-09-15T11:45:25.639Z,-62.86
2022-09-15T11:47:01.968Z,-92.86
2022-09-15T11:48:38.292Z,-75.56
2022-09-15T11:50:14.591Z,-72.96
2022-09-15T11:51:50.931Z,-88.66
2022-09-15T11:53:27.250Z,-90.96
2022-09-15T11:55:03.624Z,-90.16
2022-09-15T11:56:39.931Z,-87.46
2022-09-15T11:58:16.254Z,-80.27
2022-09-15T11:59:52.574Z,-79.46
2022-09-15T12:01:28.904Z,-85.77
2022-09-15T12:03:05.352Z,-78.96
2022-09-15T12:04:40.584Z,-90.77
2022-09-15T12:06:16.936Z,-71.36
2022-09-15T12:07:53.321Z,-87.66
2022-09-15T12:09:29.569Z,-60.56
2022-09-15T12:11:06.050Z,-60.27
2022-09-15T12:12:42.365Z,-78.27
2022-09-15T12:14:18.593Z,-72.46
2022-09-15T12:15:54.929Z,-57.56
2022-09-15T12:17:31.226Z,-68.16
2022-09-15T12:19:07.579Z,-46.46
2022-09-15T12:20:43.947Z,-42.06
2022-09-15T12:22:20.269Z,-56.46
2022-09-15T12:23:56.581Z,-63.16
2022-09-15T12:25:32.017Z,-53.77
2022-09-15T12:27:08.255Z,-55.56
2022-09-15T12:28:44.688Z,-55.46
2022-09-15T12:30:20.929Z,-67.16
2022-09-15T12:31:57.320Z,-81.77
2022-09-15T12:33:33.654Z,-100.36
2022-09-15T12:35:09.944Z,-67.46
2022-09-15T12:36:46.247Z,-106.16
2022-09-15T12:38:22.608Z,-68.77
2022-09-15T12:39:58.881Z,-76.56
2022-09-15T12:41:35.290Z,-67.56
2022-09-15T12:43:11.536Z,-101.46
2022-09-15T12:44:47.866Z,-88.16
2022-09-15T12:46:23.220Z,-81.27
2022-09-15T12:47:59.648Z,-96.86
2022-09-15T12:49:35.880Z,-108.36
2022-09-15T12:51:12.233Z,-99.77
2022-09-15T12:52:48.576Z,-88.06
2022-09-15T12:54:24.928Z,-92.56
2022-09-15T12:56:01.273Z,-100.27
2022-09-15T12:57:37.567Z,-79.36
2022-09-15T12:59:13.941Z,-127.96
2022-09-15T13:00:50.230Z,-91.77
2022-09-15T13:02:26.520Z,-96.66
2022-09-15T13:04:02.949Z,-107.06
2022-09-15T13:05:38.286Z,-113.27
2022-09-15T13:07:14.610Z,-103.46
2022-09-15T13:08:50.865Z,-112.36
2022-09-15T13:10:27.215Z,-89.16
2022-09-15T13:12:03.583Z,-106.86
2022-09-15T13:13:39.968Z,-125.66
2022-09-15T13:15:16.243Z,-145.46
2022-09-15T13:16:52.516Z,-142.16
2022-09-15T13:18:28.864Z,-143.56
2022-09-15T13:20:05.202Z,-99.36
2022-09-15T13:21:41.637Z,-92.56
2022-09-15T13:23:17.922Z,-84.27
2022-09-15T13:24:54.175Z,-93.36
2022-09-15T13:26:29.572Z,-68.56
2022-09-15T13:28:05.940Z,-82.36
2022-09-15T13:29:42.192Z,-84.66
2022-09-15T13:31:18.572Z,-82.66
2022-09-15T13:32:54.887Z,-68.66
2022-09-15T13:34:31.173Z,-133.27
2022-09-15T13:36:07.526Z,-135.27
2022-09-15T13:37:43.836Z,-92.06
2022-09-15T13:39:20.215Z,-139.46
2022-09-15T13:40:56.563Z,-109.36
2022-09-15T13:42:32.837Z,-94.46
2022-09-15T13:44:09.221Z,-114.27
2022-09-15T13:45:45.494Z,-79.36
2022-09-15T13:47:20.907Z,-83.66
2022-09-15T13:48:57.217Z,-129.46
2022-09-15T13:50:33.597Z,-127.16
2022-09-15T13:52:09.833Z,-150.56
2022-09-15T13:53:46.172Z,-73.96
2022-09-15T13:55:22.612Z,-75.27
2022-09-15T13:56:58.827Z,-89.66
2022-09-15T13:58:35.166Z,-103.16
2022-09-15T14:00:11.495Z,-78.66
2022-09-15T14:01:47.879Z,-85.46
2022-09-15T14:03:24.145Z,-133.46
2022-09-15T14:05:00.483Z,-87.56
2022-09-15T14:06:36.856Z,-120.77
2022-09-15T14:08:13.182Z,-112.56
2022-09-15T14:09:49.487Z,-113.16
2022-09-15T14:11:25.809Z,-73.36
2022-09-15T14:13:02.198Z,-69.66
2022-09-15T14:14:38.543Z,-80.96
2022-09-15T14:16:14.847Z,-88.96
2022-09-15T14:17:51.115Z,-97.36
2022-09-15T14:19:27.483Z,-115.16
2022-09-15T14:21:03.790Z,-116.27
2022-09-15T14:22:40.146Z,-79.27
2022-09-15T14:24:16.444Z,-75.86
2022-09-15T14:25:52.787Z,-91.66
2022-09-15T14:27:29.111Z,-132.36
2022-09-15T14:29:05.556Z,-123.06
2022-09-15T14:30:41.857Z,-90.56
2022-09-15T14:32:17.121Z,-84.96
2022-09-15T14:33:53.480Z,-74.46
2022-09-15T14:35:29.776Z,-89.16
2022-09-15T14:37:06.257Z,-122.36
2022-09-15T14:38:42.574Z,-129.46
2022-09-15T14:40:18.910Z,-87.66
2022-09-15T14:41:55.105Z,-99.96
2022-09-15T14:43:31.483Z,-81.77
2022-09-15T14:45:07.779Z,-98.36
2022-09-15T14:46:44.218Z,-117.27
2022-09-15T14:48:20.532Z,-92.46
2022-09-15T14:49:56.752Z,-74.36
2022-09-15T14:51:33.202Z,-101.86
2022-09-15T14:53:09.547Z,-98.86
2022-09-15T14:54:45.853Z,-88.27
2022-09-15T14:56:21.094Z,-123.16
2022-09-15T14:57:57.583Z,-138.06
2022-09-15T14:59:33.758Z,-87.96
2022-09-15T15:01:10.180Z,-121.86
2022-09-15T15:02:46.549Z,-91.77
2022-09-15T15:04:22.810Z,-69.06
2022-09-15T15:05:59.089Z,-87.86
2022-09-15T15:07:35.531Z,-87.77
2022-09-15T15:09:11.874Z,-80.77
2022-09-15T15:10:48.206Z,-74.27
2022-09-15T15:12:24.442Z,-138.96
2022-09-15T15:14:00.739Z,-79.46
2022-09-15T15:15:37.208Z,-110.06
2022-09-15T15:17:13.540Z,-111.86
2022-09-15T15:18:49.750Z,-84.36
2022-09-15T15:20:26.059Z,-90.27
2022-09-15T15:22:02.473Z,-97.06
2022-09-15T15:23:37.886Z,-101.56
2022-09-15T15:25:14.189Z,-114.96
2022-09-15T15:26:50.403Z,-82.56
2022-09-15T15:28:26.725Z,-89.86
2022-09-15T15:30:03.057Z,-92.46
2022-09-15T15:31:39.411Z,-84.86
2022-09-15T15:34:52.067Z,-118.27
2022-09-15T15:36:28.415Z,-97.77
2022-09-15T15:38:04.712Z,-81.86
2022-09-15T15:39:41.041Z,-128.86
2022-09-15T15:41:17.370Z,-111.56
2022-09-15T15:42:53.806Z,-106.27
2022-09-15T15:44:30.164Z,-128.56
2022-09-15T15:46:06.480Z,-135.86
2022-09-15T15:47:42.706Z,-153.16
2022-09-15T15:49:19.160Z,-133.77
2022-09-15T15:50:54.438Z,-163.96
2022-09-15T15:52:30.752Z,-106.77
2022-09-15T15:54:07.151Z,-103.77
2022-09-15T15:55:43.368Z,-85.36
2022-09-15T15:57:19.778Z,-107.77
2022-09-15T15:58:56.133Z,-148.06
2022-09-15T16:00:32.446Z,-100.16
2022-09-15T16:02:08.739Z,-110.06
2022-09-15T16:03:45.058Z,-136.96
2022-09-15T16:05:21.379Z,-115.36
2022-09-15T16:06:57.722Z,-89.16
2022-09-15T16:08:34.162Z,-80.56
2022-09-15T16:10:10.350Z,-104.86
2022-09-15T16:11:46.681Z,-85.86
2022-09-15T16:13:23.077Z,-72.36
2022-09-15T16:14:59.389Z,-89.96
2022-09-15T16:16:35.670Z,-68.16
2022-09-15T16:18:12.006Z,-83.36
2022-09-15T16:19:48.334Z,-100.96
2022-09-15T16:21:24.668Z,-111.16
2022-09-15T16:23:00.021Z,-84.77
2022-09-15T16:24:36.353Z,-93.86
2022-09-15T16:26:12.683Z,-88.06
2022-09-15T16:27:49.003Z,-79.96
2022-09-15T16:29:25.342Z,-105.27
2022-09-15T16:31:01.671Z,-83.06
2022-09-15T16:32:38.002Z,-106.56
2022-09-15T16:34:14.333Z,-71.27
2022-09-15T16:35:50.663Z,-78.66
2022-09-15T16:37:26.988Z,-89.16
2022-09-15T16:39:03.322Z,-95.06
2022-09-15T16:40:39.648Z,-87.56
2022-09-15T16:42:15.976Z,-95.36
2022-09-15T16:43:52.310Z,-88.86
2022-09-15T16:45:28.643Z,-83.56
2022-09-15T16:47:04.970Z,-85.16
2022-09-15T16:48:40.320Z,-95.66
2022-09-15T16:50:16.642Z,-96.16
2022-09-15T16:51:53.008Z,-101.06
2022-09-15T16:53:29.316Z,-100.46
2022-09-15T16:55:05.654Z,-86.27
2022-09-15T16:56:41.975Z,-90.66
2022-09-15T16:58:18.303Z,-101.27
2022-09-15T16:59:54.631Z,-97.66
2022-09-15T17:01:30.956Z,-102.27
2022-09-15T17:03:07.303Z,-99.77
2022-09-15T17:04:43.631Z,-115.56
2022-09-15T17:06:19.966Z,-108.27
2022-09-15T17:07:56.286Z,-114.16
2022-09-15T17:09:32.633Z,-87.46
2022-09-15T17:11:07.984Z,-104.66
2022-09-15T17:12:44.301Z,-114.36
2022-09-15T17:14:20.626Z,-105.16
2022-09-15T17:15:56.968Z,-91.86
2022-09-15T17:17:33.297Z,-90.96
2022-09-15T17:19:09.622Z,-96.86
2022-09-15T17:20:45.950Z,-110.96
2022-09-15T17:22:22.295Z,-73.77
2022-09-15T17:23:58.620Z,-89.27
2022-09-15T17:25:34.999Z,-102.96
2022-09-15T17:27:11.279Z,-120.66
2022-09-15T17:28:47.610Z,-91.06
2022-09-15T17:30:23.944Z,-127.77
2022-09-15T17:31:59.283Z,-166.46
2022-09-15T17:33:35.610Z,-133.36
2022-09-15T17:35:11.941Z,-156.96
2022-09-15T17:36:48.272Z,-128.86
2022-09-15T17:38:24.611Z,-156.16
2022-09-15T17:40:00.942Z,-133.16
2022-09-15T17:41:37.268Z,-147.06
2022-09-15T17:43:13.605Z,-132.06
2022-09-15T17:44:49.937Z,-108.96
2022-09-15T17:46:26.267Z,-110.66
2022-09-15T17:48:02.597Z,-103.86
2022-09-15T17:49:38.921Z,-107.96
2022-09-15T17:51:15.253Z,-131.86
2022-09-15T17:52:51.596Z,-90.96
2022-09-15T17:54:26.931Z,-141.77
2022-09-15T17:56:03.280Z,-118.56
2022-09-15T17:57:39.590Z,-130.66
2022-09-15T17:59:15.929Z,-114.27
2022-09-15T18:00:52.267Z,-113.86
2022-09-15T18:02:28.593Z,-133.96
2022-09-15T18:04:04.937Z,-129.66
2022-09-15T18:05:41.249Z,-128.86
2022-09-15T18:07:17.581Z,-127.86
2022-09-15T18:08:53.908Z,-130.77
2022-09-15T18:10:30.244Z,-124.56
2022-09-15T18:12:06.572Z,-123.77
2022-09-15T18:13:42.907Z,-135.27
2022-09-15T18:15:18.262Z,-122.77
2022-09-15T18:16:54.589Z,-121.16
2022-09-15T18:18:30.920Z,-117.77
2022-09-15T18:20:07.244Z,-144.26
2022-09-15T18:21:43.567Z,-116.96
2022-09-15T18:23:19.899Z,-116.06
2022-09-15T18:24:56.236Z,-121.66
2022-09-15T18:26:32.560Z,-125.56
2022-09-15T18:28:07.923Z,-127.27
2022-09-15T18:29:44.251Z,-118.36
2022-09-15T18:31:20.591Z,-151.56
2022-09-15T18:32:56.910Z,-137.96
2022-09-15T18:34:33.240Z,-130.27
2022-09-15T18:36:09.565Z,-123.06
2022-09-15T18:37:45.906Z,-123.06
2022-09-15T18:39:22.225Z,-143.76
2022-09-15T18:40:58.564Z,-135.66
2022-09-15T18:42:34.895Z,-134.77
2022-09-15T18:44:11.234Z,-137.96
2022-09-15T18:45:47.553Z,-115.56
2022-09-15T18:47:23.896Z,-135.86
2022-09-15T18:48:59.237Z,-142.96
2022-09-15T18:50:35.575Z,-129.46
2022-09-15T18:52:11.902Z,-128.36
2022-09-15T18:53:48.227Z,-125.27
2022-09-15T18:55:24.555Z,-127.66
2022-09-15T18:57:00.883Z,-153.66
2022-09-15T18:58:37.216Z,-135.27
2022-09-15T19:00:13.579Z,-113.77
2022-09-15T19:01:49.873Z,-142.36
2022-09-15T19:03:26.270Z,-121.06
2022-09-15T19:05:02.561Z,-145.06
2022-09-15T19:06:38.896Z,-118.36
2022-09-15T19:08:15.208Z,-116.96
2022-09-15T19:09:51.530Z,-123.66
2022-09-15T19:11:27.862Z,-103.16
2022-09-15T19:13:04.201Z,-141.56
2022-09-15T19:14:40.584Z,-122.77
2022-09-15T19:16:15.884Z,-143.56
2022-09-15T19:17:52.200Z,-151.96
2022-09-15T19:19:28.580Z,-119.06
2022-09-15T19:21:04.891Z,-133.06
2022-09-15T19:22:41.200Z,-152.96
2022-09-15T19:24:17.523Z,-132.06
2022-09-15T19:25:53.854Z,-145.86
2022-09-15T19:27:30.235Z,-133.46
2022-09-15T19:29:06.531Z,-132.66
2022-09-15T19:30:42.868Z,-117.36
2022-09-15T19:32:19.184Z,-118.06
2022-09-15T19:33:55.586Z,-117.27
2022-09-15T19:35:31.854Z,-122.36
2022-09-15T19:37:07.187Z,-129.77
2022-09-15T19:38:43.524Z,-124.46
2022-09-15T19:40:19.852Z,-105.77
2022-09-15T19:41:56.199Z,-115.06
2022-09-15T19:43:32.616Z,-121.16
2022-09-15T19:45:08.849Z,-127.16
2022-09-15T19:46:45.273Z,-109.66
2022-09-15T19:48:21.662Z,-86.56
2022-09-15T19:49:57.993Z,-104.96
2022-09-15T19:51:34.339Z,-112.96
2022-09-15T19:53:10.639Z,-110.66
2022-09-15T19:54:46.885Z,-103.66